Time;durP1;ratioP1;P1;durP2;ratioP2;P2;SDS_P1;SDS_P2;PMS_P1;PMS_P2;Temp;Humidity;BMP_temperature;BMP_pressure;BME280_temperature;BME280_humidity;BME280_pressure;Samples;Min_cycle;Max_cycle;Signal;HPM_P1;HPM_P2
2021/06/24 00:02:18;;;;;;;7.07;5.55;;;;;;;16.39;90.43;96430.47;5073189;28;20064;-71
2021/06/24 00:04:45;;;;;;;9.98;5.22;;;;;;;16.35;90.97;96448.81;5073580;28;20043;-71
2021/06/24 00:07:13;;;;;;;8.70;5.60;;;;;;;16.34;91.79;96429.91;5073337;28;20048;-72
2021/06/24 00:09:39;;;;;;;6.75;5.18;;;;;;;16.34;92.24;96430.75;5073390;28;20041;-72
2021/06/24 00:12:07;;;;;;;7.47;5.28;;;;;;;16.38;92.54;96426.09;5073278;28;20044;-71
2021/06/24 00:14:33;;;;;;;9.77;5.55;;;;;;;16.47;92.63;96417.69;5073657;28;20044;-71
2021/06/24 00:17:00;;;;;;;12.65;6.50;;;;;;;16.57;92.67;96424.63;5073635;28;20059;-72
2021/06/24 00:19:26;;;;;;;9.13;6.05;;;;;;;16.64;92.65;96416.53;5072951;28;20063;-72
2021/06/24 00:21:53;;;;;;;9.60;5.72;;;;;;;16.65;92.37;96423.63;5073396;28;20385;-72
2021/06/24 00:24:21;;;;;;;9.70;5.55;;;;;;;16.69;92.41;96433.56;5072772;28;20510;-72
2021/06/24 00:26:47;;;;;;;10.48;6.00;;;;;;;16.68;92.19;96425.69;5073559;28;20040;-71
2021/06/24 00:29:14;;;;;;;9.35;6.32;;;;;;;16.71;92.15;96419.50;5072837;28;20057;-72
2021/06/24 00:31:40;;;;;;;8.05;6.10;;;;;;;16.71;92.14;96419.50;5073455;28;20040;-72
2021/06/24 00:34:07;;;;;;;13.40;6.65;;;;;;;16.75;92.16;96422.31;5072717;28;20048;-72
2021/06/24 00:36:33;;;;;;;12.32;6.93;;;;;;;16.76;92.23;96426.66;5073199;28;20047;-72
2021/06/24 00:39:00;;;;;;;11.48;7.80;;;;;;;16.75;92.15;96422.31;5073034;28;20048;-72
2021/06/24 00:41:29;;;;;;;12.68;7.47;;;;;;;16.75;92.23;96417.63;5071472;28;20598;-72
2021/06/24 00:43:55;;;;;;;11.40;7.50;;;;;;;16.75;92.07;96420.38;5072827;28;20048;-71
2021/06/24 00:46:22;;;;;;;13.48;8.02;;;;;;;16.74;92.15;96418.78;5072274;28;20531;-72
2021/06/24 00:48:56;;;;;;;12.52;8.00;;;;;;;16.77;92.07;96417.28;5072590;28;20044;-72
2021/06/24 00:51:23;;;;;;;11.68;7.38;;;;;;;16.80;91.93;96417.34;5072214;28;20098;-71
2021/06/24 00:53:49;;;;;;;14.35;8.23;;;;;;;16.81;91.81;96412.66;5072520;28;20044;-72
2021/06/24 00:56:26;;;;;;;12.63;8.00;;;;;;;16.84;91.85;96421.00;5072105;28;20499;-72
2021/06/24 00:58:54;;;;;;;10.23;7.70;;;;;;;16.88;91.01;96419.13;5072720;28;20047;-71
2021/06/24 01:01:21;;;;;;;12.02;7.90;;;;;;;16.84;90.31;96421.00;5071985;28;20040;-72
2021/06/24 01:03:48;;;;;;;10.10;7.20;;;;;;;16.80;89.99;96413.81;5070758;28;20045;-71
2021/06/24 01:06:15;;;;;;;12.88;8.35;;;;;;;16.82;90.41;96417.03;5071994;28;20419;-72
2021/06/24 01:08:41;;;;;;;13.40;9.38;;;;;;;16.85;90.65;96414.34;5072573;28;20044;-71
2021/06/24 01:11:08;;;;;;;12.20;7.90;;;;;;;16.89;90.65;96404.22;5072050;28;20052;-72
2021/06/24 01:13:34;;;;;;;13.00;7.82;;;;;;;16.95;90.23;96393.72;5072410;28;20487;-72
2021/06/24 01:16:02;;;;;;;11.48;7.80;;;;;;;16.97;88.66;96391.44;5072176;28;20048;-71
2021/06/24 01:18:29;;;;;;;10.45;6.97;;;;;;;16.93;88.21;96396.84;5072090;28;20044;-71
2021/06/24 01:20:55;;;;;;;11.23;7.75;;;;;;;16.89;88.32;96404.22;5072128;28;20044;-71
2021/06/24 01:23:22;;;;;;;14.40;7.68;;;;;;;16.84;88.47;96411.94;5071833;28;20136;-72
2021/06/24 01:25:50;;;;;;;10.75;7.80;;;;;;;16.81;88.63;96407.97;5072129;28;20048;-71
2021/06/24 01:28:16;;;;;;;10.77;8.40;;;;;;;16.85;89.13;96414.34;5071726;28;20048;-72
2021/06/24 01:30:43;;;;;;;11.38;8.18;;;;;;;16.86;89.29;96410.44;5072087;28;20048;-71
2021/06/24 01:33:11;;;;;;;14.85;9.07;;;;;;;16.87;89.42;96420.28;5071664;28;20048;-71
2021/06/24 01:35:38;;;;;;;13.65;7.97;;;;;;;16.92;89.62;96424.72;5071532;28;20049;-72
2021/06/24 01:38:07;;;;;;;10.82;7.70;;;;;;;16.91;89.27;96423.94;5071381;28;20045;-72
2021/06/24 01:40:34;;;;;;;11.57;7.45;;;;;;;16.81;88.59;96418.97;5071781;28;20044;-71
2021/06/24 01:43:02;;;;;;;12.27;7.10;;;;;;;16.85;88.81;96425.34;5071703;28;20052;-71
2021/06/24 01:45:29;;;;;;;9.98;6.55;;;;;;;16.85;87.71;96428.09;5071371;28;20036;-71
2021/06/24 01:47:55;;;;;;;10.68;7.15;;;;;;;16.85;87.99;96430.03;5071505;28;20052;-71
2021/06/24 01:50:22;;;;;;;9.55;6.55;;;;;;;16.91;88.28;96434.94;5071138;28;20059;-71
2021/06/24 01:52:50;;;;;;;10.30;6.45;;;;;;;16.94;88.59;96425.94;5071324;28;20047;-72
2021/06/24 01:55:17;;;;;;;9.73;7.13;;;;;;;16.97;87.96;96426.41;5071202;28;20127;-72
2021/06/24 01:57:44;;;;;;;8.27;6.03;;;;;;;16.97;87.84;96426.41;5071680;28;20040;-71
2021/06/24 02:00:14;;;;;;;7.57;5.63;;;;;;;17.01;87.26;96427.25;5070876;28;20514;-72
2021/06/24 02:02:43;;;;;;;9.10;5.28;;;;;;;16.95;86.49;96424.78;5071722;28;20045;-71
2021/06/24 02:05:11;;;;;;;7.15;5.25;;;;;;;16.91;86.64;96418.44;5085083;28;20044;-72
2021/06/24 02:07:40;;;;;;;8.13;5.30;;;;;;;16.90;87.24;96403.06;5091667;28;20078;-71
2021/06/24 02:10:08;;;;;;;9.82;5.28;;;;;;;16.89;87.56;96403.44;5091208;28;20040;-72
2021/06/24 02:12:35;;;;;;;8.48;4.65;;;;;;;16.90;87.21;96411.31;5091656;28;20494;-71
2021/06/24 02:15:02;;;;;;;5.25;3.92;;;;;;;16.86;86.99;96404.94;5091110;28;20052;-71
2021/06/24 02:17:30;;;;;;;6.43;4.07;;;;;;;16.83;86.53;96415.84;5091471;28;20431;-72
2021/06/24 02:19:56;;;;;;;5.88;4.00;;;;;;;16.80;86.35;96403.59;5091516;28;20044;-72
2021/06/24 02:22:23;;;;;;;7.72;3.70;;;;;;;16.74;86.28;96396.00;5091010;28;20040;-72
2021/06/24 02:24:49;;;;;;;6.72;3.83;;;;;;;16.70;87.07;96401.38;5091301;28;20047;-71
2021/06/24 02:27:16;;;;;;;6.85;3.80;;;;;;;16.66;86.92;96400.50;5091001;28;20055;-71
2021/06/24 02:29:42;;;;;;;6.88;3.75;;;;;;;16.66;86.94;96400.50;5078737;28;20530;-71
2021/06/24 02:32:09;;;;;;;4.55;3.60;;;;;;;16.63;86.92;96391.00;5070914;28;20051;-72
2021/06/24 02:34:37;;;;;;;6.63;3.90;;;;;;;16.62;86.50;96381.16;5070851;28;20055;-71
2021/06/24 02:37:04;;;;;;;6.07;3.90;;;;;;;16.61;86.74;96387.81;5070736;28;20055;-72
2021/06/24 02:39:31;;;;;;;8.52;3.70;;;;;;;16.63;86.95;96385.50;5071184;28;20064;-71
2021/06/24 02:41:59;;;;;;;5.75;3.45;;;;;;;16.59;86.64;96383.81;5071149;28;20056;-71
2021/06/24 02:44:25;;;;;;;5.95;3.63;;;;;;;16.58;86.75;96398.72;5070464;28;20040;-71
2021/06/24 02:46:52;;;;;;;8.57;4.68;;;;;;;16.60;86.82;96390.91;5070789;28;20437;-72
2021/06/24 02:49:18;;;;;;;8.68;3.88;;;;;;;16.56;86.07;96392.78;5070507;28;20049;-72
2021/06/24 02:51:47;;;;;;;5.60;3.72;;;;;;;16.52;86.00;96400.16;5070883;28;20044;-71
2021/06/24 02:54:14;;;;;;;6.07;3.78;;;;;;;16.44;85.92;96394.47;5070455;28;20491;-72
2021/06/24 02:56:41;;;;;;;5.22;3.70;;;;;;;16.35;85.90;96401.31;5070928;28;20055;-71
2021/06/24 02:59:07;;;;;;;5.30;3.53;;;;;;;16.28;86.21;96398.34;5070619;28;20049;-72
2021/06/24 03:01:34;;;;;;;5.95;3.75;;;;;;;16.25;86.55;96396.34;5070804;28;20499;-71
2021/06/24 03:04:00;;;;;;;6.60;3.90;;;;;;;16.21;86.24;96396.22;5071123;28;20049;-71
2021/06/24 03:06:27;;;;;;;7.43;3.67;;;;;;;16.15;86.28;96392.16;5074612;28;20055;-71
2021/06/24 03:08:55;;;;;;;7.68;3.67;;;;;;;16.04;86.21;96389.13;5074672;28;20048;-71
2021/06/24 03:11:21;;;;;;;6.00;3.10;;;;;;;15.99;86.88;96394.09;5074282;28;20052;-71
2021/06/24 03:13:49;;;;;;;6.45;3.28;;;;;;;15.97;87.22;96386.19;5074860;28;20049;-71
2021/06/24 03:16:16;;;;;;;7.45;3.30;;;;;;;16.00;87.48;96373.69;5074174;28;20495;-71
2021/06/24 03:18:45;;;;;;;8.63;3.20;;;;;;;16.04;87.35;96375.41;5074794;28;20044;-72
2021/06/24 03:21:11;;;;;;;5.50;3.08;;;;;;;16.11;86.99;96380.28;5073962;28;20068;-71
2021/06/24 03:23:38;;;;;;;5.90;3.28;;;;;;;16.13;86.04;96386.19;5074813;28;20124;-72
2021/06/24 03:26:06;;;;;;;5.00;3.17;;;;;;;16.12;85.53;96377.16;5074217;28;20052;-71
2021/06/24 03:28:32;;;;;;;4.63;2.80;;;;;;;16.10;85.21;96384.16;5074397;28;20048;-71
2021/06/24 03:30:58;;;;;;;4.82;3.00;;;;;;;16.04;85.27;96375.41;5074437;28;20052;-71
2021/06/24 03:33:26;;;;;;;5.60;3.20;;;;;;;16.04;85.94;96371.84;5073653;28;20554;-72
2021/06/24 03:35:53;;;;;;;5.50;3.00;;;;;;;15.99;86.27;96372.13;5054524;28;20044;-71
2021/06/24 03:38:20;;;;;;;4.72;3.45;;;;;;;15.98;86.13;96379.56;5054118;28;20056;-71
2021/06/24 03:40:47;;;;;;;3.47;2.47;;;;;;;15.96;86.07;96370.06;5054390;28;20045;-71
2021/06/24 03:43:15;;;;;;;4.85;2.75;;;;;;;15.98;86.12;96370.53;5053953;28;20423;-72
2021/06/24 03:45:41;;;;;;;6.78;2.80;;;;;;;16.00;86.09;96369.00;5053832;28;20045;-72
2021/06/24 03:48:08;;;;;;;6.07;3.20;;;;;;;16.06;86.37;96370.34;5053595;28;20048;-72
2021/06/24 03:50:35;;;;;;;4.30;2.92;;;;;;;16.14;86.56;96371.34;5054048;28;20049;-71
2021/06/24 03:53:02;;;;;;;4.05;2.58;;;;;;;16.18;86.54;96372.19;5053989;28;20048;-73
2021/06/24 03:55:37;;;;;;;4.45;2.33;;;;;;;16.20;86.02;96377.38;5053982;28;20052;-72
2021/06/24 03:58:04;;;;;;;4.47;2.50;;;;;;;16.21;85.65;96370.72;5053516;28;20052;-72
2021/06/24 04:00:32;;;;;;;4.78;2.33;;;;;;;16.23;84.90;96376.63;5072798;28;20044;-72
2021/06/24 04:02:59;;;;;;;4.10;2.20;;;;;;;16.22;84.12;96375.84;5073813;28;20051;-72
2021/06/24 04:05:28;;;;;;;3.05;2.22;;;;;;;16.23;83.96;96377.44;5072806;28;20053;-72
2021/06/24 04:07:54;;;;;;;4.72;2.20;;;;;;;16.25;84.06;96380.66;5073901;28;20052;-71
2021/06/24 04:10:21;;;;;;;3.00;2.35;;;;;;;16.27;84.36;96383.03;5073413;28;20529;-71
2021/06/24 04:12:47;;;;;;;7.00;3.08;;;;;;;16.27;84.83;96383.81;5073627;28;20041;-71
2021/06/24 04:15:15;;;;;;;3.42;2.30;;;;;;;16.29;85.24;96381.53;5073041;28;20055;-71
2021/06/24 04:17:42;;;;;;;4.60;2.40;;;;;;;16.30;85.15;96377.63;5073779;28;20056;-71
2021/06/24 04:20:10;;;;;;;5.88;2.70;;;;;;;16.28;85.20;96377.16;5073073;28;20418;-71
2021/06/24 04:22:36;;;;;;;3.35;2.22;;;;;;;16.25;85.05;96377.91;5073760;28;20434;-72
2021/06/24 04:25:03;;;;;;;8.13;2.53;;;;;;;16.26;85.12;96376.75;5073012;28;20044;-72
2021/06/24 04:27:29;;;;;;;3.78;2.78;;;;;;;16.27;85.63;96372.84;5073474;28;20060;-71
2021/06/24 04:29:55;;;;;;;3.88;2.40;;;;;;;16.27;85.58;96374.78;5073312;28;20048;-71
2021/06/24 04:32:22;;;;;;;4.25;2.38;;;;;;;16.30;85.67;96369.38;5073094;28;20064;-72
2021/06/24 04:34:50;;;;;;;4.70;2.70;;;;;;;16.29;84.54;96367.81;5084281;28;20499;-71
2021/06/24 04:37:16;;;;;;;3.67;2.30;;;;;;;16.28;84.58;96368.94;5093160;28;20059;-71
2021/06/24 04:39:43;;;;;;;5.25;2.70;;;;;;;16.28;84.97;96368.13;5093515;28;20048;-71
2021/06/24 04:42:09;;;;;;;4.07;2.20;;;;;;;16.29;85.10;96376.03;5092846;28;20051;-72
2021/06/24 04:44:36;;;;;;;3.80;2.28;;;;;;;16.27;84.60;96375.59;5093152;28;20519;-71
2021/06/24 04:47:04;;;;;;;5.05;2.22;;;;;;;16.22;85.06;96364.84;5092423;28;20051;-71
2021/06/24 04:49:31;;;;;;;4.60;2.25;;;;;;;16.23;84.44;96362.91;5093183;28;20055;-71
2021/06/24 04:51:59;;;;;;;3.97;2.17;;;;;;;16.26;85.10;96359.47;5093050;28;20127;-71
2021/06/24 04:54:25;;;;;;;5.55;2.25;;;;;;;16.26;85.40;96360.25;5092504;28;20047;-71
2021/06/24 04:56:52;;;;;;;6.55;2.63;;;;;;;16.26;85.68;96357.50;5093154;28;20044;-72
2021/06/24 04:59:18;;;;;;;3.78;2.53;;;;;;;16.31;85.82;96361.94;5083259;28;20052;-72
2021/06/24 05:01:45;;;;;;;4.78;2.70;;;;;;;16.31;85.90;96362.75;5072745;28;20048;-71
2021/06/24 05:04:11;;;;;;;7.25;2.85;;;;;;;16.35;86.01;96357.34;5070843;28;20059;-72
2021/06/24 05:06:38;;;;;;;4.97;2.53;;;;;;;16.35;86.01;96363.63;5072324;28;20052;-71
2021/06/24 05:09:07;;;;;;;3.75;2.70;;;;;;;16.37;85.76;96361.31;5072131;28;20106;-72
2021/06/24 05:11:34;;;;;;;4.72;2.78;;;;;;;16.43;85.66;96354.38;5072554;28;20518;-72
2021/06/24 05:14:00;;;;;;;5.60;2.70;;;;;;;16.47;85.26;96361.94;5072541;28;20066;-71
2021/06/24 05:16:27;;;;;;;3.63;2.40;;;;;;;16.43;85.12;96364.59;5072107;28;20040;-72
2021/06/24 05:18:53;;;;;;;4.35;2.45;;;;;;;16.42;85.19;96363.00;5072477;28;20044;-71
2021/06/24 05:21:20;;;;;;;4.25;2.42;;;;;;;16.44;85.13;96367.00;5071745;28;20041;-71
2021/06/24 05:23:46;;;;;;;6.75;3.22;;;;;;;16.49;85.30;96354.13;5072210;28;20044;-71
2021/06/24 05:26:14;;;;;;;6.75;3.08;;;;;;;16.49;85.07;96362.38;5071058;28;20048;-72
2021/06/24 05:28:40;;;;;;;10.55;2.92;;;;;;;16.43;84.70;96357.13;5071189;28;20044;-72
2021/06/24 05:31:07;;;;;;;4.82;2.85;;;;;;;16.41;84.82;96359.44;5071649;28;20048;-71
2021/06/24 05:33:34;;;;;;;6.38;2.83;;;;;;;16.39;84.84;96364.53;5071861;28;20098;-74
2021/06/24 05:36:00;;;;;;;4.90;3.40;;;;;;;16.40;84.91;96360.63;5071796;28;20044;-74
2021/06/24 05:38:27;;;;;;;5.80;3.30;;;;;;;16.44;85.05;96361.50;5071667;28;20040;-74
2021/06/24 05:40:55;;;;;;;5.22;3.10;;;;;;;16.46;85.18;96357.59;5072043;28;20040;-74
2021/06/24 05:43:22;;;;;;;5.18;3.47;;;;;;;16.50;85.35;96353.00;5071479;28;20063;-75
2021/06/24 05:45:49;;;;;;;5.30;3.70;;;;;;;16.55;85.32;96360.94;5071579;28;20502;-74
2021/06/24 05:48:16;;;;;;;7.63;4.05;;;;;;;16.60;85.08;96360.66;5071052;28;20052;-74
2021/06/24 05:50:43;;;;;;;6.63;3.88;;;;;;;16.67;84.97;96369.09;5071615;28;20052;-74
2021/06/24 05:53:10;;;;;;;5.50;3.60;;;;;;;16.74;84.50;96363.78;5071172;28;20415;-74
2021/06/24 05:55:49;;;;;;;5.50;3.35;;;;;;;16.73;84.16;96362.19;5071510;28;20048;-74
2021/06/24 05:58:17;;;;;;;8.50;4.10;;;;;;;16.78;83.87;96367.44;5071046;28;20087;-74
2021/06/24 06:00:45;;;;;;;5.68;3.80;;;;;;;16.78;83.68;96370.19;5071634;28;20558;-75
2021/06/24 06:03:12;;;;;;;5.55;3.80;;;;;;;16.79;84.38;96369.00;5071174;28;20127;-74
2021/06/24 06:05:38;;;;;;;7.32;3.83;;;;;;;16.81;84.58;96369.47;5071469;28;20056;-75
2021/06/24 06:08:07;;;;;;;7.28;3.60;;;;;;;16.83;84.79;96375.41;5071147;28;20135;-74
2021/06/24 06:10:34;;;;;;;9.43;4.40;;;;;;;16.80;84.83;96373.34;5071505;28;20127;-74
2021/06/24 06:13:01;;;;;;;8.57;3.85;;;;;;;16.86;84.92;96380.19;5071527;28;20629;-74
2021/06/24 06:15:28;;;;;;;5.32;4.22;;;;;;;16.93;85.26;96374.84;5062943;28;20055;-74
2021/06/24 06:17:55;;;;;;;8.20;4.72;;;;;;;17.05;85.14;96370.38;5071391;28;20040;-74
2021/06/24 06:20:22;;;;;;;8.18;4.07;;;;;;;17.08;85.47;96372.44;5070875;28;20071;-75
2021/06/24 06:22:48;;;;;;;6.93;4.03;;;;;;;17.14;85.71;96365.47;5071210;28;20043;-75
2021/06/24 06:25:15;;;;;;;7.00;4.00;;;;;;;17.20;85.06;96359.31;5070882;28;20403;-74
2021/06/24 06:27:42;;;;;;;8.05;4.75;;;;;;;17.21;85.15;96368.38;5071067;28;20051;-75
2021/06/24 06:30:10;;;;;;;5.47;3.70;;;;;;;17.27;84.74;96366.94;5070902;28;20052;-74
2021/06/24 06:32:36;;;;;;;6.88;3.38;;;;;;;17.23;83.82;96366.06;5071213;28;20116;-75
2021/06/24 06:35:05;;;;;;;5.22;3.50;;;;;;;17.28;83.97;96354.78;5070310;28;20405;-75
2021/06/24 06:37:32;;;;;;;6.82;4.00;;;;;;;17.32;84.19;96355.63;5071282;28;20041;-74
2021/06/24 06:39:58;;;;;;;7.32;3.53;;;;;;;17.34;84.14;96353.34;5070999;28;20056;-75
2021/06/24 06:42:25;;;;;;;6.35;3.70;;;;;;;17.38;83.89;96351.47;5070551;28;20041;-75
2021/06/24 06:44:51;;;;;;;5.78;3.97;;;;;;;17.42;82.28;96346.78;5070996;28;20040;-74
2021/06/24 06:47:18;;;;;;;9.52;3.95;;;;;;;17.44;82.94;96341.75;5070212;28;20056;-74
2021/06/24 06:49:44;;;;;;;11.45;5.15;;;;;;;17.52;83.25;96337.16;5071257;28;20045;-74
2021/06/24 06:52:12;;;;;;;5.35;4.38;;;;;;;17.62;83.72;96335.78;5070818;28;20049;-74
2021/06/24 06:54:38;;;;;;;6.70;4.18;;;;;;;17.69;83.32;96341.41;5071022;28;20131;-75
2021/06/24 06:57:05;;;;;;;7.40;3.83;;;;;;;17.75;83.38;96340.00;5070652;28;20045;-75
2021/06/24 06:59:34;;;;;;;6.28;4.05;;;;;;;17.78;82.18;96339.28;5070811;28;20063;-74
2021/06/24 07:02:01;;;;;;;5.53;4.22;;;;;;;17.84;82.38;96353.53;5070802;28;20055;-74
2021/06/24 07:04:27;;;;;;;5.03;4.03;;;;;;;17.93;82.99;96352.16;5070639;28;20040;-76
2021/06/24 07:06:54;;;;;;;6.43;3.97;;;;;;;18.02;82.20;96353.88;5071004;28;20040;-75
2021/06/24 07:09:22;;;;;;;4.32;3.45;;;;;;;18.09;81.78;96349.28;5070526;28;20051;-74
2021/06/24 07:11:48;;;;;;;8.88;4.50;;;;;;;18.13;81.53;96349.34;5070754;28;20123;-74
2021/06/24 07:14:15;;;;;;;5.95;3.92;;;;;;;18.20;81.79;96350.25;5070377;28;20047;-75
2021/06/24 07:16:41;;;;;;;5.25;4.38;;;;;;;18.26;81.54;96345.22;5070670;28;20044;-75
2021/06/24 07:19:08;;;;;;;4.70;4.10;;;;;;;18.28;81.34;96353.94;5070347;28;20059;-74
2021/06/24 07:21:34;;;;;;;6.40;4.88;;;;;;;18.33;81.73;96358.38;5070505;28;20522;-74
2021/06/24 07:24:01;;;;;;;6.95;4.22;;;;;;;18.40;82.05;96353.75;5070581;28;20048;-75
2021/06/24 07:26:29;;;;;;;7.15;5.03;;;;;;;18.54;82.14;96367.00;5070422;28;20480;-74
2021/06/24 07:28:56;;;;;;;4.95;4.00;;;;;;;18.66;80.24;96358.50;5070535;28;20040;-75
2021/06/24 07:31:22;;;;;;;4.93;3.63;;;;;;;18.73;78.59;96360.59;5070126;28;20063;-75
2021/06/24 07:33:49;;;;;;;6.47;3.10;;;;;;;18.79;76.29;96356.34;5067835;28;20045;-75
2021/06/24 07:36:16;;;;;;;6.80;3.85;;;;;;;18.87;77.80;96360.03;5068791;28;20047;-75
2021/06/24 07:38:42;;;;;;;5.55;3.83;;;;;;;18.93;78.12;96350.25;5070484;28;20131;-75
2021/06/24 07:41:09;;;;;;;4.72;3.38;;;;;;;19.00;78.88;96348.41;5070176;28;20507;-74
2021/06/24 07:43:37;;;;;;;8.27;3.20;;;;;;;18.99;78.32;96346.81;5070487;28;20036;-75
2021/06/24 07:46:03;;;;;;;3.35;2.83;;;;;;;19.07;78.98;96350.47;5070031;28;20045;-75
2021/06/24 07:48:30;;;;;;;3.97;2.67;;;;;;;19.08;78.57;96349.31;5070471;28;20040;-75
2021/06/24 07:50:56;;;;;;;6.70;2.67;;;;;;;19.07;78.08;96353.22;5072637;28;20622;-75
2021/06/24 07:53:23;;;;;;;3.53;2.80;;;;;;;19.04;78.15;96360.28;5073631;28;20045;-74
2021/06/24 07:55:49;;;;;;;3.25;2.13;;;;;;;19.01;75.75;96358.28;5074210;28;20048;-75
2021/06/24 07:58:16;;;;;;;3.20;2.55;;;;;;;18.99;76.13;96346.81;5073565;28;20399;-74
2021/06/24 08:00:44;;;;;;;4.72;2.30;;;;;;;19.03;76.43;96347.66;5073673;28;20052;-75
2021/06/24 08:03:10;;;;;;;4.22;3.10;;;;;;;19.03;76.40;96346.84;5073400;28;20044;-76
2021/06/24 08:05:37;;;;;;;5.53;3.72;;;;;;;19.11;77.76;96347.78;5073597;28;20507;-75
2021/06/24 08:08:04;;;;;;;4.22;3.28;;;;;;;19.18;78.59;96353.38;5073341;28;20056;-75
2021/06/24 08:10:30;;;;;;;5.30;3.58;;;;;;;19.27;79.28;96357.47;5073474;28;20064;-75
2021/06/24 08:12:57;;;;;;;3.92;3.17;;;;;;;19.32;79.37;96348.06;5073461;28;20045;-76
2021/06/24 08:15:26;;;;;;;4.07;3.08;;;;;;;19.39;78.79;96342.59;5073193;28;20040;-75
2021/06/24 08:17:55;;;;;;;4.90;3.47;;;;;;;19.49;78.04;96354.97;5073756;28;20618;-75
2021/06/24 08:20:22;;;;;;;5.35;3.15;;;;;;;19.55;78.10;96354.25;5073105;28;20055;-75
2021/06/24 08:22:48;;;;;;;3.40;2.40;;;;;;;19.60;78.26;96355.13;5073158;28;20048;-74
2021/06/24 08:25:15;;;;;;;4.50;2.72;;;;;;;20.24;77.97;96350.28;5072890;28;20415;-75
2021/06/24 08:27:42;;;;;;;4.05;2.25;;;;;;;21.63;74.33;96349.28;5073452;28;20045;-76
2021/06/24 08:30:09;;;;;;;4.47;2.33;;;;;;;22.35;71.27;96349.50;5064348;28;20053;-75
2021/06/24 08:32:37;;;;;;;2.58;1.60;;;;;;;22.91;62.53;96347.91;5073434;28;20037;-76
2021/06/24 08:35:06;;;;;;;2.45;1.40;;;;;;;22.64;60.71;96345.53;5059390;28;20049;-75
2021/06/24 08:37:33;;;;;;;2.75;1.65;;;;;;;22.33;62.80;96351.84;5053273;28;20099;-75
2021/06/24 08:39:59;;;;;;;2.83;1.90;;;;;;;21.97;65.44;96348.97;5053119;28;20056;-76
2021/06/24 08:42:26;;;;;;;4.32;2.17;;;;;;;21.70;67.52;96347.72;5052988;28;20519;-76
2021/06/24 08:44:53;;;;;;;5.47;3.28;;;;;;;21.40;68.44;96348.78;5052996;28;20048;-75
2021/06/24 08:47:20;;;;;;;3.53;2.22;;;;;;;21.21;69.12;96343.50;5052604;28;20519;-76
2021/06/24 08:49:50;;;;;;;3.90;2.65;;;;;;;21.02;70.59;96348.16;5053098;28;20049;-75
2021/06/24 08:52:18;;;;;;;4.93;2.78;;;;;;;20.87;71.45;96342.91;5052657;28;20060;-76
2021/06/24 08:54:44;;;;;;;4.72;2.22;;;;;;;20.73;71.06;96340.84;5053236;28;20045;-76
2021/06/24 08:57:11;;;;;;;4.15;2.38;;;;;;;20.53;68.03;96343.84;5052466;28;20049;-76
2021/06/24 08:59:38;;;;;;;6.65;2.72;;;;;;;20.34;68.32;96342.06;5052551;28;20048;-75
2021/06/24 09:02:06;;;;;;;3.55;2.25;;;;;;;20.30;69.53;96341.25;5059806;28;20040;-75
2021/06/24 09:04:33;;;;;;;4.30;2.50;;;;;;;20.26;71.11;96347.94;5072695;28;20056;-75
2021/06/24 09:07:08;;;;;;;4.85;2.83;;;;;;;20.17;72.46;96348.25;5072547;28;20044;-75
2021/06/24 09:09:39;;;;;;;3.88;2.47;;;;;;;20.14;72.77;96342.66;5072577;28;20411;-76
2021/06/24 09:12:07;;;;;;;5.03;2.25;;;;;;;20.05;71.40;96341.03;5072155;28;20513;-75
2021/06/24 09:14:39;;;;;;;5.60;2.78;;;;;;;20.05;70.05;96341.03;5072595;28;20048;-75
2021/06/24 09:17:06;;;;;;;4.28;2.10;;;;;;;20.05;67.62;96346.56;5072090;28;20048;-75
2021/06/24 09:19:32;;;;;;;4.72;2.20;;;;;;;20.01;67.67;96340.19;5072335;28;20040;-75
2021/06/24 09:22:02;;;;;;;5.28;2.30;;;;;;;20.03;67.00;96342.56;5072607;28;20064;-76
2021/06/24 09:24:31;;;;;;;4.68;2.30;;;;;;;20.20;70.22;96353.03;5072315;28;20061;-75
2021/06/24 09:27:00;;;;;;;4.50;2.40;;;;;;;20.62;68.05;96339.94;5072315;28;20216;-75
2021/06/24 09:29:27;;;;;;;4.40;2.15;;;;;;;20.98;65.55;96341.78;5071853;28;20423;-76
2021/06/24 09:31:55;;;;;;;4.43;2.20;;;;;;;21.38;71.20;96342.03;5072141;28;20040;-76
2021/06/24 09:34:22;;;;;;;5.40;2.20;;;;;;;21.75;72.43;96339.03;5071323;28;20404;-75
2021/06/24 09:36:51;;;;;;;6.38;2.15;;;;;;;22.04;63.01;96340.69;5071930;28;20052;-76
2021/06/24 09:39:28;;;;;;;3.33;2.00;;;;;;;22.10;59.59;96349.41;5071782;28;20053;-75
2021/06/24 09:42:02;;;;;;;4.32;1.98;;;;;;;21.83;61.50;96335.09;5072065;28;20120;-77
2021/06/24 09:44:30;;;;;;;2.10;1.60;;;;;;;21.80;65.09;96336.66;5059518;28;20075;-76
2021/06/24 09:46:57;;;;;;;3.75;2.42;;;;;;;21.78;67.40;96339.03;5051676;28;20128;-74
2021/06/24 09:49:29;;;;;;;5.30;2.00;;;;;;;21.76;66.57;96340.59;5051217;28;20064;-75
2021/06/24 09:51:57;;;;;;;4.20;2.47;;;;;;;21.73;67.66;96324.78;5051828;28;20064;-75
2021/06/24 09:54:32;;;;;;;4.35;2.80;;;;;;;21.66;66.82;96327.50;5051201;28;20041;-76
2021/06/24 09:57:02;;;;;;;2.65;2.00;;;;;;;21.66;66.83;96335.81;5051814;28;20049;-75
2021/06/24 09:59:38;;;;;;;3.70;2.20;;;;;;;21.63;68.04;96335.44;5071205;28;20094;-77
2021/06/24 10:02:11;;;;;;;4.15;2.55;;;;;;;21.62;64.37;96336.63;5071114;28;20047;-75
2021/06/24 10:04:40;;;;;;;3.40;2.42;;;;;;;21.66;67.07;96333.03;5071438;28;20514;-75
2021/06/24 10:07:11;;;;;;;4.88;2.33;;;;;;;21.68;68.25;96334.25;5070971;28;20044;-75
2021/06/24 10:09:39;;;;;;;2.83;1.92;;;;;;;21.81;66.92;96326.38;5071447;28;20129;-77
2021/06/24 10:12:10;;;;;;;3.72;2.10;;;;;;;22.09;67.18;96326.44;5071111;28;20063;-75
2021/06/24 10:14:38;;;;;;;4.55;2.28;;;;;;;22.31;65.09;96326.50;5071118;28;20044;-76
2021/06/24 10:17:06;;;;;;;3.40;2.58;;;;;;;22.51;64.38;96326.91;5071054;28;20052;-75
2021/06/24 10:19:34;;;;;;;3.30;2.45;;;;;;;22.43;62.28;96317.78;5070957;28;20044;-75
2021/06/24 10:22:05;;;;;;;5.03;2.22;;;;;;;22.40;64.02;96318.59;5071185;28;20036;-76
2021/06/24 10:24:35;;;;;;;4.43;1.98;;;;;;;22.39;62.75;96319.75;5071145;28;20040;-77
2021/06/24 10:27:09;;;;;;;3.60;2.63;;;;;;;22.35;63.99;96321.75;5071091;28;20040;-76
2021/06/24 10:29:41;;;;;;;4.10;2.72;;;;;;;22.33;63.84;96329.66;5070876;28;20102;-77
2021/06/24 10:32:26;;;;;;;3.28;2.67;;;;;;;22.25;65.31;96328.88;5070620;28;20102;-75
2021/06/24 10:34:53;;;;;;;2.88;2.00;;;;;;;22.21;65.89;96341.16;5071201;28;20404;-75
2021/06/24 10:37:22;;;;;;;3.17;2.38;;;;;;;22.12;63.50;96336.75;5070445;28;20440;-75
2021/06/24 10:39:50;;;;;;;4.93;2.67;;;;;;;22.10;60.90;96347.47;5070987;28;20044;-75
2021/06/24 10:42:18;;;;;;;3.55;2.33;;;;;;;22.16;61.44;96339.56;5070705;28;20048;-75
2021/06/24 10:44:57;;;;;;;4.68;2.67;;;;;;;22.44;65.63;96340.75;5070745;28;20040;-76
2021/06/24 10:47:31;;;;;;;2.75;1.80;;;;;;;22.72;62.90;96335.22;5070340;28;20102;-76
2021/06/24 10:50:36;;;;;;;5.57;2.30;;;;;;;22.84;63.22;96345.13;5071009;28;20057;-75
2021/06/24 10:53:52;;;;;;;3.80;1.92;;;;;;;23.13;65.97;96345.91;5070260;28;20055;-75
2021/06/24 10:56:41;;;;;;;2.88;1.80;;;;;;;23.32;62.72;96347.44;5070446;28;20045;-75
2021/06/24 10:59:29;;;;;;;4.25;2.03;;;;;;;23.25;62.43;96344.69;5070377;28;20121;-74
2021/06/24 11:02:14;;;;;;;2.05;1.73;;;;;;;23.10;58.40;96349.47;5070883;28;20044;-74
2021/06/24 11:04:45;;;;;;;2.78;2.00;;;;;;;23.04;62.12;96340.75;5070056;28;20040;-75
2021/06/24 11:07:21;;;;;;;3.00;2.10;;;;;;;23.18;60.41;96335.19;5069801;28;20414;-74
2021/06/24 11:10:26;;;;;;;3.28;2.00;;;;;;;23.46;59.69;96333.50;5070764;28;20056;-74
2021/06/24 11:12:59;;;;;;;3.47;2.10;;;;;;;23.54;61.88;96335.03;5070892;28;20127;-74
2021/06/24 11:15:54;;;;;;;2.83;1.80;;;;;;;23.48;60.39;96325.53;5070146;28;20051;-75
2021/06/24 11:18:57;;;;;;;2.15;1.77;;;;;;;23.38;59.93;96326.38;5070319;28;20036;-76
2021/06/24 11:21:54;;;;;;;4.57;2.33;;;;;;;23.40;58.90;96329.56;5070361;28;20115;-74
2021/06/24 11:24:23;;;;;;;4.25;2.40;;;;;;;23.24;56.96;96321.69;5062124;28;20469;-76
2021/06/24 11:26:51;;;;;;;2.45;2.03;;;;;;;23.12;58.75;96339.53;5074086;28;20040;-76
2021/06/24 11:29:38;;;;;;;3.65;2.40;;;;;;;23.02;60.73;96332.06;5073881;28;20048;-77
2021/06/24 11:32:10;;;;;;;4.55;2.58;;;;;;;22.84;60.17;96337.59;5073831;28;20075;-75
2021/06/24 11:34:49;;;;;;;3.63;2.33;;;;;;;22.71;61.49;96343.94;5074044;28;20056;-75
2021/06/24 11:37:18;;;;;;;3.22;2.30;;;;;;;22.58;63.13;96344.34;5073654;28;20415;-75
2021/06/24 11:39:46;;;;;;;3.80;2.60;;;;;;;22.47;60.71;96353.84;5074148;28;20214;-76